createdAt,value
2019-05-28T00:01:58.856Z,10.68
2019-05-28T00:04:35.364Z,9.23
2019-05-28T00:07:04.102Z,7.83
2019-05-28T00:09:38.934Z,7.65
2019-05-28T00:12:06.747Z,5.22
2019-05-28T00:14:36.255Z,5.20
2019-05-28T00:17:09.829Z,10.72
2019-05-28T00:19:40.719Z,6.53
2019-05-28T00:22:10.123Z,4.03
2019-05-28T00:25:07.401Z,10.45
2019-05-28T00:27:34.704Z,7.47
2019-05-28T00:30:18.557Z,5.80
2019-05-28T00:32:33.520Z,9.03
2019-05-28T00:35:01.974Z,6.47
2019-05-28T00:37:30.374Z,6.70
2019-05-28T00:40:02.910Z,10.28
2019-05-28T00:45:03.319Z,7.40
2019-05-28T00:47:36.780Z,6.60
2019-05-28T00:50:10.537Z,7.58
2019-05-28T00:52:53.404Z,8.30
2019-05-28T00:55:22.051Z,8.78
2019-05-28T00:57:54.048Z,7.35
2019-05-28T01:00:42.182Z,10.80
2019-05-28T01:03:14.991Z,11.45
2019-05-28T01:05:43.588Z,10.37
2019-05-28T01:08:21.352Z,15.18
2019-05-28T01:10:55.258Z,11.80
2019-05-28T01:13:31.563Z,8.23
2019-05-28T01:16:03.883Z,8.28
2019-05-28T01:18:42.536Z,12.07
2019-05-28T01:21:10.967Z,10.20
2019-05-28T01:23:43.436Z,10.48
2019-05-28T01:28:46.860Z,12.07
2019-05-28T01:31:18.835Z,11.95
2019-05-28T01:33:49.898Z,7.95
2019-05-28T01:36:22.184Z,10.13
2019-05-28T01:38:50.589Z,9.30
2019-05-28T01:41:19.003Z,8.08
2019-05-28T01:43:48.375Z,9.68
2019-05-28T01:46:24.659Z,9.48
2019-05-28T01:48:59.882Z,11.30
2019-05-28T01:51:41.087Z,10.28
2019-05-28T01:54:09.489Z,7.17
2019-05-28T01:56:42.959Z,16.80
2019-05-28T01:59:15.766Z,8.95
2019-05-28T02:01:48.194Z,15.85
2019-05-28T02:04:16.604Z,11.03
2019-05-28T02:06:48.944Z,15.28
2019-05-28T02:09:21.232Z,11.78
2019-05-28T02:11:49.639Z,9.03
2019-05-28T02:14:21.861Z,10.93
2019-05-28T02:16:50.293Z,14.40
2019-05-28T02:19:24.854Z,13.98
2019-05-28T02:21:53.268Z,8.55
2019-05-28T02:24:25.522Z,10.48
2019-05-28T02:26:57.707Z,10.60
2019-05-28T02:29:28.177Z,17.85
2019-05-28T02:31:59.061Z,12.13
2019-05-28T02:34:32.971Z,12.17
2019-05-28T02:37:05.498Z,15.80
2019-05-28T02:39:37.710Z,13.80
2019-05-28T02:42:06.192Z,13.50
2019-05-28T02:44:35.613Z,13.03
2019-05-28T02:47:11.541Z,13.00
2019-05-28T02:49:43.818Z,14.45
2019-05-28T02:52:17.455Z,10.65
2019-05-28T02:54:48.068Z,13.68
2019-05-28T02:57:19.542Z,13.65
2019-05-28T02:59:56.246Z,13.10
2019-05-28T03:02:29.288Z,12.45
2019-05-28T03:05:06.381Z,11.97
2019-05-28T03:07:39.553Z,16.85
2019-05-28T03:10:13.222Z,13.35
2019-05-28T03:12:41.761Z,19.57
2019-05-28T03:15:10.624Z,13.53
2019-05-28T03:17:44.595Z,14.13
2019-05-28T03:20:22.247Z,13.53
2019-05-28T03:22:51.736Z,11.45
2019-05-28T03:25:22.514Z,12.25
2019-05-28T03:27:54.948Z,13.45
2019-05-28T03:30:26.059Z,12.85
2019-05-28T03:32:55.036Z,10.25
2019-05-28T03:35:23.969Z,15.53
2019-05-28T03:37:54.322Z,10.88
2019-05-28T03:40:26.776Z,9.95
2019-05-28T03:45:24.441Z,16.65
2019-05-28T03:48:04.071Z,12.65
2019-05-28T03:50:33.570Z,11.65
2019-05-28T03:53:05.611Z,10.40
2019-05-28T03:55:38.347Z,11.43
2019-05-28T03:58:16.622Z,13.03
2019-05-28T04:00:45.113Z,7.83
2019-05-28T04:03:13.530Z,12.60
2019-05-28T04:05:44.415Z,11.80
2019-05-28T04:08:12.858Z,12.63
2019-05-28T04:10:42.325Z,13.00
2019-05-28T04:13:13.483Z,13.50
2019-05-28T04:15:42.994Z,16.70
2019-05-28T04:18:11.417Z,13.00
2019-05-28T04:20:43.732Z,10.50
2019-05-28T04:23:23.269Z,9.48
2019-05-28T04:25:52.741Z,10.15
2019-05-28T04:28:21.150Z,9.45
2019-05-28T04:30:51.913Z,10.85
2019-05-28T04:33:30.361Z,16.12
2019-05-28T04:35:58.869Z,12.05
2019-05-28T04:38:28.638Z,6.53
2019-05-28T04:40:59.198Z,8.68
2019-05-28T04:43:27.617Z,6.28
2019-05-28T04:45:59.498Z,6.72
2019-05-28T04:48:28.876Z,14.83
2019-05-28T04:50:57.315Z,9.58
2019-05-28T04:53:25.711Z,11.48
2019-05-28T04:55:54.111Z,7.22
2019-05-28T04:58:22.527Z,9.63
2019-05-28T05:00:53.631Z,12.27
2019-05-28T05:03:25.785Z,10.68
2019-05-28T05:05:54.192Z,8.18
2019-05-28T05:08:22.587Z,8.93
2019-05-28T05:10:51.005Z,9.88
2019-05-28T05:13:19.419Z,8.83
2019-05-28T05:15:47.825Z,7.17
2019-05-28T05:18:22.200Z,6.60
2019-05-28T05:20:50.612Z,7.53
2019-05-28T05:23:20.046Z,7.28
2019-05-28T05:25:48.478Z,9.43
2019-05-28T05:28:16.995Z,4.05
2019-05-28T05:30:46.414Z,6.95
2019-05-28T05:33:20.423Z,8.70
2019-05-28T05:35:47.121Z,7.55
2019-05-28T05:38:24.314Z,6.15
2019-05-28T05:40:57.432Z,5.45
2019-05-28T05:43:26.946Z,7.58
2019-05-28T05:46:00.642Z,4.60
2019-05-28T05:48:30.397Z,6.58
2019-05-28T05:50:58.727Z,6.60
2019-05-28T05:53:30.530Z,4.65
2019-05-28T05:55:59.988Z,9.58
2019-05-28T05:58:28.399Z,5.67
2019-05-28T06:00:57.778Z,7.35
2019-05-28T06:03:39.752Z,4.08
2019-05-28T06:05:57.231Z,5.37
2019-05-28T06:08:27.722Z,6.05
2019-05-28T06:10:57.189Z,4.37
2019-05-28T06:13:25.531Z,11.50
2019-05-28T06:15:53.972Z,6.08
2019-05-28T06:18:27.556Z,7.60
2019-05-28T06:21:12.369Z,5.83
2019-05-28T06:23:34.630Z,4.20
2019-05-28T06:26:03.479Z,4.43
2019-05-28T06:28:32.983Z,4.45
2019-05-28T06:31:07.152Z,5.28
2019-05-28T06:33:37.620Z,8.68
2019-05-28T06:36:08.519Z,9.15
2019-05-28T06:38:38.041Z,8.05
2019-05-28T06:41:06.441Z,3.45
2019-05-28T06:43:34.908Z,4.70
2019-05-28T06:46:03.342Z,8.43
2019-05-28T06:48:34.742Z,8.23
2019-05-28T06:51:05.829Z,4.97
2019-05-28T06:53:34.324Z,5.67
2019-05-28T06:56:02.771Z,6.25
2019-05-28T06:58:39.819Z,6.00
2019-05-28T07:01:10.821Z,10.78
2019-05-28T07:03:39.237Z,4.12
2019-05-28T07:06:09.297Z,8.93
2019-05-28T07:08:37.630Z,5.53
2019-05-28T07:11:08.502Z,3.58
2019-05-28T07:13:41.707Z,2.72
2019-05-28T07:16:10.152Z,16.48
2019-05-28T07:18:39.525Z,6.47
2019-05-28T07:21:14.317Z,3.90
2019-05-28T07:23:41.797Z,6.10
2019-05-28T07:26:10.194Z,3.53
2019-05-28T07:28:38.701Z,4.22
2019-05-28T07:31:07.098Z,4.95
2019-05-28T07:33:37.685Z,5.20
2019-05-28T07:36:06.095Z,6.22
2019-05-28T07:38:38.353Z,2.92
2019-05-28T07:41:13.843Z,4.78
2019-05-28T07:43:41.156Z,4.72
2019-05-28T07:46:09.575Z,4.20
2019-05-28T07:48:41.811Z,6.10
2019-05-28T07:51:14.089Z,3.13
2019-05-28T07:56:11.524Z,3.47
2019-05-28T07:58:40.140Z,9.88
2019-05-28T08:01:09.626Z,5.95
2019-05-28T08:03:38.378Z,5.53
2019-05-28T08:06:06.787Z,7.20
2019-05-28T08:08:40.692Z,3.60
2019-05-28T08:11:09.092Z,9.23
2019-05-28T08:13:40.825Z,7.10
2019-05-28T08:16:18.288Z,3.77
2019-05-28T08:18:38.804Z,2.47
2019-05-28T08:21:17.525Z,5.58
2019-05-28T08:23:49.226Z,3.12
2019-05-28T08:26:20.930Z,2.17
2019-05-28T08:28:49.396Z,3.98
2019-05-28T08:31:21.135Z,5.30
2019-05-28T08:33:48.114Z,12.40
2019-05-28T08:36:16.627Z,5.25
2019-05-28T08:38:47.787Z,3.02
2019-05-28T08:41:16.208Z,4.12
2019-05-28T08:43:48.738Z,3.90
2019-05-28T08:46:24.739Z,2.55
2019-05-28T08:48:52.792Z,3.40
2019-05-28T08:51:21.210Z,4.58
2019-05-28T08:53:50.766Z,2.02
2019-05-28T08:56:19.143Z,2.72
2019-05-28T08:58:47.559Z,7.33
2019-05-28T09:01:17.452Z,1.87
2019-05-28T09:03:45.857Z,4.55
2019-05-28T09:06:26.929Z,6.90
2019-05-28T09:08:54.696Z,2.97
2019-05-28T09:11:24.220Z,3.92
2019-05-28T09:13:56.391Z,7.60
2019-05-28T09:16:24.779Z,3.05
2019-05-28T09:18:53.202Z,2.42
2019-05-28T09:21:29.178Z,1.52
2019-05-28T09:23:57.567Z,3.23
2019-05-28T09:26:26.077Z,3.08
2019-05-28T09:28:55.439Z,4.37
2019-05-28T09:31:24.268Z,4.90
2019-05-28T09:33:56.226Z,4.58
2019-05-28T09:36:24.626Z,3.58
2019-05-28T09:38:54.941Z,2.23
2019-05-28T09:41:23.369Z,4.67
2019-05-28T09:43:51.780Z,4.37
2019-05-28T09:46:20.180Z,2.80
2019-05-28T09:48:51.388Z,3.95
2019-05-28T09:51:19.777Z,3.40
2019-05-28T09:53:51.566Z,3.98
2019-05-28T09:56:19.985Z,4.12
2019-05-28T09:58:51.907Z,2.80
2019-05-28T10:01:20.577Z,3.98
2019-05-28T10:03:48.987Z,6.60
2019-05-28T10:06:19.797Z,2.83
2019-05-28T10:08:48.190Z,4.65
2019-05-28T10:11:17.163Z,3.87
2019-05-28T10:13:46.535Z,5.00
2019-05-28T10:16:14.939Z,6.30
2019-05-28T10:18:43.353Z,2.42
2019-05-28T10:21:18.293Z,3.25
2019-05-28T10:23:42.664Z,2.62
2019-05-28T10:26:11.067Z,4.78
2019-05-28T10:28:39.475Z,7.03
2019-05-28T10:31:07.880Z,3.20
2019-05-28T10:33:36.316Z,5.20
2019-05-28T10:36:08.185Z,3.42
2019-05-28T10:38:37.663Z,2.75
2019-05-28T10:41:13.785Z,2.15
2019-05-28T10:43:44.284Z,2.17
2019-05-28T10:46:12.799Z,3.08
2019-05-28T10:48:46.362Z,7.83
2019-05-28T10:51:18.943Z,2.47
2019-05-28T10:53:49.609Z,3.20
2019-05-28T10:56:21.915Z,4.30
2019-05-28T11:01:24.124Z,4.50
2019-05-28T11:03:52.522Z,5.17
2019-05-28T11:06:20.959Z,4.83
2019-05-28T11:09:21.359Z,3.02
2019-05-28T11:11:43.221Z,5.37
2019-05-28T11:14:11.629Z,2.77
2019-05-28T11:16:42.278Z,6.30
2019-05-28T11:19:10.698Z,3.37
2019-05-28T11:21:43.582Z,2.98
2019-05-28T11:24:17.326Z,4.53
2019-05-28T11:26:47.213Z,3.47
2019-05-28T11:29:20.223Z,10.30
2019-05-28T11:31:51.391Z,6.05
2019-05-28T11:34:26.222Z,5.43
2019-05-28T11:37:08.247Z,2.37
2019-05-28T11:39:27.561Z,6.97
2019-05-28T11:41:56.083Z,3.12
2019-05-28T11:44:28.350Z,5.40
2019-05-28T11:46:59.488Z,3.42
2019-05-28T11:49:27.938Z,3.47
2019-05-28T11:51:56.309Z,5.03
2019-05-28T11:54:31.376Z,1.95
2019-05-28T11:57:02.263Z,3.17
2019-05-28T11:59:33.209Z,2.37
2019-05-28T12:02:05.269Z,4.17
2019-05-28T12:04:34.223Z,2.58
2019-05-28T12:07:22.908Z,5.67
2019-05-28T12:09:46.907Z,4.25
2019-05-28T12:12:15.302Z,3.75
2019-05-28T12:14:43.729Z,1.85
2019-05-28T12:17:12.739Z,3.75
2019-05-28T12:19:47.345Z,3.80
2019-05-28T12:22:28.527Z,5.03
2019-05-28T12:24:58.561Z,5.22
2019-05-28T12:27:31.261Z,5.08
2019-05-28T12:30:05.411Z,5.42
2019-05-28T12:32:33.868Z,4.83
2019-05-28T12:35:02.273Z,7.25
2019-05-28T12:37:47.395Z,3.92
2019-05-28T12:40:07.382Z,3.75
2019-05-28T12:42:36.769Z,6.45
2019-05-28T12:45:14.074Z,8.58
2019-05-28T12:47:44.524Z,2.40
2019-05-28T12:50:20.415Z,3.42
2019-05-28T12:52:49.863Z,4.33
2019-05-28T12:55:28.070Z,4.72
2019-05-28T12:57:57.451Z,6.10
2019-05-28T13:00:28.659Z,3.40
2019-05-28T13:03:00.521Z,3.42
2019-05-28T13:05:30.698Z,4.80
2019-05-28T13:08:08.977Z,5.37
2019-05-28T13:10:32.665Z,2.60
2019-05-28T13:13:01.091Z,2.75
2019-05-28T13:15:29.561Z,3.45
2019-05-28T13:17:58.941Z,3.77
2019-05-28T13:20:27.376Z,3.15
2019-05-28T13:22:57.032Z,5.25
2019-05-28T13:25:32.673Z,5.08
2019-05-28T13:28:02.718Z,5.95
2019-05-28T13:33:09.892Z,3.25
2019-05-28T13:35:40.832Z,2.40
2019-05-28T13:38:25.574Z,4.47
2019-05-28T13:40:44.319Z,3.02
2019-05-28T13:43:27.243Z,5.53
2019-05-28T13:45:58.284Z,3.02
2019-05-28T13:48:26.690Z,4.45
2019-05-28T13:51:00.263Z,5.15
2019-05-28T13:53:31.131Z,6.28
2019-05-28T13:55:59.552Z,7.92
2019-05-28T13:58:31.961Z,2.77
2019-05-28T14:01:03.624Z,2.70
2019-05-28T14:03:35.554Z,7.10
2019-05-28T14:06:05.978Z,5.10
2019-05-28T14:08:45.961Z,3.47
2019-05-28T14:11:06.011Z,3.43
2019-05-28T14:13:39.937Z,2.77
2019-05-28T14:16:08.329Z,1.35
2019-05-28T14:18:39.341Z,1.90
2019-05-28T14:21:07.746Z,4.97
2019-05-28T14:23:37.288Z,2.50
2019-05-28T14:26:05.782Z,2.62
2019-05-28T14:28:36.676Z,2.90
2019-05-28T14:31:05.162Z,4.87
2019-05-28T14:33:33.579Z,3.52
2019-05-28T14:36:02.959Z,3.58
2019-05-28T14:41:31.341Z,3.37
2019-05-28T14:44:02.258Z,3.10
2019-05-28T14:46:31.773Z,2.80
2019-05-28T14:49:07.483Z,7.77
2019-05-28T14:51:41.725Z,7.25
2019-05-28T14:54:14.258Z,4.72
2019-05-28T14:56:47.927Z,12.50
2019-05-28T14:59:16.336Z,6.12
2019-05-28T15:01:44.775Z,4.30
2019-05-28T15:04:13.223Z,6.50
2019-05-28T15:06:41.648Z,19.00
2019-05-28T15:09:20.740Z,9.80
2019-05-28T15:14:21.808Z,12.93
2019-05-28T15:16:59.621Z,14.43
2019-05-28T15:19:28.073Z,9.43
2019-05-28T15:21:56.484Z,11.40
2019-05-28T15:24:28.663Z,9.93
2019-05-28T15:26:57.068Z,8.95
2019-05-28T15:29:31.137Z,4.70
2019-05-28T15:32:02.756Z,5.30
2019-05-28T15:36:58.801Z,9.20
2019-05-28T15:39:39.025Z,8.13
2019-05-28T15:41:59.474Z,7.97
2019-05-28T15:44:27.956Z,11.80
2019-05-28T15:46:59.082Z,8.38
2019-05-28T15:49:32.939Z,7.45
2019-05-28T15:52:07.803Z,6.58
2019-05-28T15:54:33.570Z,21.25
2019-05-28T15:57:02.965Z,59.20
2019-05-28T15:59:31.440Z,53.48
2019-05-28T16:01:59.929Z,46.73
2019-05-28T16:04:30.444Z,35.20
2019-05-28T16:06:58.891Z,48.50
2019-05-28T16:09:27.304Z,15.60
2019-05-28T16:11:55.753Z,4.42
2019-05-28T16:14:25.129Z,8.63
2019-05-28T16:16:53.541Z,4.70
2019-05-28T16:19:24.758Z,13.58
2019-05-28T16:22:05.761Z,14.53
2019-05-28T16:24:43.792Z,11.30
2019-05-28T16:27:15.870Z,9.50
2019-05-28T16:29:44.297Z,21.30
2019-05-28T16:32:16.301Z,6.22
2019-05-28T16:34:44.798Z,8.63
2019-05-28T16:37:13.234Z,38.98
2019-05-28T16:39:41.773Z,25.43
2019-05-28T16:42:16.708Z,63.45
2019-05-28T16:44:56.290Z,17.52
2019-05-28T16:47:25.849Z,10.98
2019-05-28T16:49:57.089Z,15.83
2019-05-28T16:52:29.978Z,23.27
2019-05-28T16:54:58.768Z,14.67
2019-05-28T16:57:27.203Z,12.55
2019-05-28T16:59:55.646Z,11.18
2019-05-28T17:02:31.074Z,5.45
2019-05-28T17:05:03.452Z,6.92
2019-05-28T17:10:02.688Z,5.05
2019-05-28T17:12:31.823Z,15.43
2019-05-28T17:15:00.437Z,10.88
2019-05-28T17:17:30.053Z,14.28
2019-05-28T17:20:01.831Z,23.73
2019-05-28T17:22:31.503Z,12.93
2019-05-28T17:25:00.281Z,33.55
2019-05-28T17:27:29.067Z,23.60
2019-05-28T17:30:16.005Z,25.40
2019-05-28T17:32:28.888Z,5.08
2019-05-28T17:34:59.476Z,16.55
2019-05-28T17:37:28.037Z,5.75
2019-05-28T17:39:56.728Z,4.60
2019-05-28T17:42:28.806Z,3.98
2019-05-28T17:44:58.054Z,3.67
2019-05-28T17:47:26.455Z,3.15
2019-05-28T17:50:00.805Z,3.47
2019-05-28T17:52:30.232Z,4.33
2019-05-28T17:55:06.408Z,5.45
2019-05-28T17:57:35.090Z,1.32
2019-05-28T18:00:12.064Z,7.50
2019-05-28T18:02:48.338Z,4.75
2019-05-28T18:05:15.933Z,2.85
2019-05-28T18:07:44.343Z,2.47
2019-05-28T18:10:16.687Z,8.15
2019-05-28T18:12:45.159Z,7.55
2019-05-28T18:15:20.569Z,6.95
2019-05-28T18:17:49.930Z,4.72
2019-05-28T18:20:22.214Z,6.40
2019-05-28T18:22:50.640Z,3.30
2019-05-28T18:25:20.309Z,6.37
2019-05-28T18:27:52.135Z,5.12
2019-05-28T18:30:22.164Z,6.83
2019-05-28T18:32:50.584Z,2.47
2019-05-28T18:35:22.791Z,10.85
2019-05-28T18:38:03.434Z,5.17
2019-05-28T18:40:28.695Z,5.03
2019-05-28T18:42:59.413Z,5.40
2019-05-28T18:45:28.482Z,4.65
2019-05-28T18:47:56.964Z,3.22
2019-05-28T18:50:27.845Z,1.72
2019-05-28T18:52:58.746Z,5.70
2019-05-28T18:55:34.996Z,1.55
2019-05-28T18:58:04.540Z,2.08
2019-05-28T19:00:35.429Z,3.83
2019-05-28T19:03:03.815Z,5.65
2019-05-28T19:05:32.253Z,4.08
2019-05-28T19:08:03.294Z,7.70
2019-05-28T19:10:31.702Z,3.37
2019-05-28T19:13:05.232Z,2.10
2019-05-28T19:15:41.326Z,1.52
2019-05-28T19:18:12.371Z,2.20
2019-05-28T19:20:42.145Z,1.47
2019-05-28T19:23:10.703Z,3.52
2019-05-28T19:25:41.475Z,1.20
2019-05-28T19:28:09.851Z,1.45
2019-05-28T19:30:39.537Z,3.00
2019-05-28T19:33:12.412Z,2.98
2019-05-28T19:35:51.133Z,1.55
2019-05-28T19:38:22.335Z,4.70
2019-05-28T19:40:50.739Z,2.10
2019-05-28T19:43:19.371Z,3.67
2019-05-28T19:45:47.778Z,3.42
2019-05-28T19:48:24.494Z,4.10
2019-05-28T19:50:56.143Z,2.10
2019-05-28T19:53:24.562Z,2.15
2019-05-28T19:55:55.643Z,4.72
2019-05-28T19:58:27.680Z,1.40
2019-05-28T20:03:23.720Z,2.75
2019-05-28T20:05:52.117Z,3.35
2019-05-28T20:08:20.536Z,2.50
2019-05-28T20:10:50.727Z,1.52
2019-05-28T20:13:19.072Z,3.58
2019-05-28T20:15:47.496Z,2.70
2019-05-28T20:18:26.199Z,2.42
2019-05-28T20:20:46.073Z,3.02
2019-05-28T20:23:14.465Z,3.87
2019-05-28T20:25:42.897Z,2.80
2019-05-28T20:28:11.297Z,2.95
2019-05-28T20:30:40.539Z,2.17
2019-05-28T20:33:09.755Z,1.70
2019-05-28T20:35:38.151Z,5.28
2019-05-28T20:38:09.654Z,2.17
2019-05-28T20:40:37.758Z,3.15
2019-05-28T20:43:08.229Z,2.45
2019-05-28T20:45:40.284Z,3.10
2019-05-28T20:48:08.723Z,2.85
2019-05-28T20:50:41.111Z,3.40
2019-05-28T20:53:09.534Z,3.20
2019-05-28T20:55:40.098Z,2.83
2019-05-28T20:58:08.520Z,5.83
2019-05-28T21:00:36.916Z,2.60
2019-05-28T21:03:05.509Z,2.20
2019-05-28T21:05:33.904Z,3.40
2019-05-28T21:08:02.331Z,4.37
2019-05-28T21:10:30.891Z,3.30
2019-05-28T21:12:59.311Z,3.65
2019-05-28T21:15:31.587Z,3.80
2019-05-28T21:18:01.102Z,6.78
2019-05-28T21:20:32.135Z,2.45
2019-05-28T21:23:01.661Z,2.70
2019-05-28T21:25:32.355Z,4.07
2019-05-28T21:28:00.756Z,3.65
2019-05-28T21:30:32.808Z,3.40
2019-05-28T21:33:01.302Z,5.22
2019-05-28T21:35:32.584Z,5.42
2019-05-28T21:38:01.338Z,2.85
2019-05-28T21:40:29.953Z,4.62
2019-05-28T21:43:04.797Z,4.87
2019-05-28T21:45:28.501Z,3.83
2019-05-28T21:47:58.597Z,4.62
2019-05-28T21:50:33.533Z,2.30
2019-05-28T21:53:03.095Z,3.67
2019-05-28T21:55:31.625Z,3.20
2019-05-28T21:58:01.825Z,2.62
2019-05-28T22:00:39.090Z,3.10
2019-05-28T22:03:12.440Z,2.90
2019-05-28T22:05:40.851Z,5.65
2019-05-28T22:08:11.732Z,3.52
2019-05-28T22:10:40.136Z,3.77
2019-05-28T22:13:20.174Z,7.00
2019-05-28T22:15:42.622Z,2.60
2019-05-28T22:18:12.061Z,5.08
2019-05-28T22:20:40.463Z,3.00
2019-05-28T22:23:08.893Z,2.47
2019-05-28T22:25:37.268Z,3.10
2019-05-28T22:28:08.113Z,4.78
2019-05-28T22:30:39.007Z,2.70
2019-05-28T22:33:08.393Z,2.45
2019-05-28T22:35:39.274Z,7.00
2019-05-28T22:38:07.653Z,4.17
2019-05-28T22:40:36.152Z,3.57
2019-05-28T22:43:05.102Z,4.80
2019-05-28T22:45:33.624Z,7.55
2019-05-28T22:48:03.263Z,4.05
2019-05-28T22:50:32.136Z,4.23
2019-05-28T22:53:01.775Z,4.10
2019-05-28T22:55:33.783Z,3.15
2019-05-28T22:58:16.606Z,5.20
2019-05-28T23:03:16.452Z,6.87
2019-05-28T23:05:45.918Z,3.08
2019-05-28T23:08:15.384Z,4.35
2019-05-28T23:10:44.769Z,3.30
2019-05-28T23:13:14.240Z,4.87
2019-05-28T23:15:44.743Z,5.75
2019-05-28T23:18:15.799Z,4.53
2019-05-28T23:20:46.644Z,3.73
2019-05-28T23:23:16.000Z,4.12
2019-05-28T23:25:49.435Z,5.25
2019-05-28T23:28:23.007Z,5.00
2019-05-28T23:30:51.418Z,4.53
2019-05-28T23:33:19.818Z,3.50
2019-05-28T23:35:48.231Z,6.50
2019-05-28T23:38:16.635Z,3.80
2019-05-28T23:40:45.040Z,4.58
2019-05-28T23:43:13.938Z,4.62
2019-05-28T23:45:42.546Z,5.50
2019-05-28T23:48:18.081Z,2.20
2019-05-28T23:50:44.589Z,3.47
2019-05-28T23:53:13.808Z,4.65
2019-05-28T23:55:45.235Z,5.60
2019-05-28T23:58:15.904Z,3.80
